Terminal Aerodrome Forecast
Issued by NWS

Home | Current Version | Previous Version | Text Only | Print | Product List | Glossary On
Versions: 1 2 3 4 5 6 7 8 9 10 11 12 13 14 15 16 17
000
FTUS45 KTFX 012336
TAFCTB
TAF
KCTB 012336Z 0200/0224 34012KT P6SM SCT050
     FM020200 34006KT P6SM SCT070
     FM021000 33006KT P6SM SKC
     FM021500 VRB05KT P6SM SCT070=

USA.gov is the U.S. government's official web portal to all federal, state and local government web resources and services.